createdAt,value
2023-03-06T00:02:52.095Z,79.66
2023-03-06T00:08:18.109Z,79.77
2023-03-06T00:13:44.386Z,79.84
2023-03-06T00:19:02.872Z,79.87
2023-03-06T00:24:29.163Z,79.96
2023-03-06T00:29:54.888Z,80.01
2023-03-06T00:35:20.924Z,80.18
2023-03-06T00:40:47.215Z,80.21
2023-03-06T00:46:12.912Z,80.66
2023-03-06T00:51:38.956Z,81.00
2023-03-06T00:57:04.656Z,81.02
2023-03-06T01:02:30.921Z,81.39
2023-03-06T01:07:56.691Z,81.72
2023-03-06T01:13:22.443Z,82.51
2023-03-06T01:18:48.187Z,82.93
2023-03-06T01:24:13.916Z,83.56
2023-03-06T01:29:40.482Z,83.85
2023-03-06T01:35:06.286Z,83.79
2023-03-06T01:40:34.178Z,84.24
2023-03-06T01:46:34.846Z,84.17
2023-03-06T01:52:04.114Z,84.12
2023-03-06T01:57:35.122Z,84.58
2023-03-06T02:03:02.394Z,84.90
2023-03-06T02:08:35.182Z,84.97
2023-03-06T02:13:59.777Z,85.02
2023-03-06T02:19:30.328Z,85.26
2023-03-06T02:24:59.105Z,85.50
2023-03-06T02:30:30.429Z,85.51
2023-03-06T02:35:58.057Z,85.91
2023-03-06T02:41:27.199Z,86.07
2023-03-06T02:46:52.844Z,86.22
2023-03-06T02:52:18.847Z,86.59
2023-03-06T02:57:44.464Z,86.65
2023-03-06T03:03:10.196Z,86.94
2023-03-06T03:08:35.881Z,87.07
2023-03-06T03:14:01.623Z,87.50
2023-03-06T03:19:27.265Z,87.55
2023-03-06T03:24:53.104Z,87.84
2023-03-06T03:30:21.315Z,88.15
2023-03-06T03:35:47.217Z,88.34
2023-03-06T03:41:13.161Z,88.36
2023-03-06T03:46:38.846Z,88.76
2023-03-06T03:52:05.221Z,88.24
2023-03-06T03:57:30.880Z,88.50
2023-03-06T04:02:56.582Z,88.13
2023-03-06T04:08:23.051Z,87.94
2023-03-06T04:13:52.736Z,87.89
2023-03-06T04:19:18.415Z,87.98
2023-03-06T04:24:44.407Z,88.07
2023-03-06T04:30:10.515Z,88.20
2023-03-06T04:35:36.758Z,88.16
2023-03-06T04:41:02.502Z,88.26
2023-03-06T04:46:29.676Z,87.99
2023-03-06T04:51:58.757Z,87.98
2023-03-06T04:57:24.955Z,87.95
2023-03-06T05:02:50.620Z,87.76
2023-03-06T05:08:17.076Z,87.79
2023-03-06T05:13:43.203Z,87.92
2023-03-06T05:19:08.917Z,87.88
2023-03-06T05:24:34.959Z,87.93
2023-03-06T05:30:00.687Z,88.03
2023-03-06T05:35:28.185Z,88.05
2023-03-06T05:40:54.248Z,87.96
2023-03-06T05:46:24.516Z,88.01
2023-03-06T05:51:50.323Z,87.79
2023-03-06T05:57:16.043Z,87.82
2023-03-06T06:02:42.068Z,87.77
2023-03-06T06:08:08.024Z,87.82
2023-03-06T06:13:33.870Z,87.74
2023-03-06T06:18:59.914Z,87.96
2023-03-06T06:24:26.542Z,88.02
2023-03-06T06:29:52.789Z,87.86
2023-03-06T06:35:18.619Z,88.14
2023-03-06T06:40:54.021Z,88.22
2023-03-06T06:47:18.171Z,88.23
2023-03-06T06:52:16.522Z,88.24
2023-03-06T06:57:42.222Z,88.11
2023-03-06T07:03:08.061Z,88.01
2023-03-06T07:08:33.714Z,87.99
2023-03-06T07:13:59.832Z,87.94
2023-03-06T07:19:25.509Z,87.91
2023-03-06T07:24:50.013Z,87.67
2023-03-06T07:30:15.667Z,87.67
2023-03-06T07:35:42.217Z,87.62
2023-03-06T07:41:10.836Z,87.90
2023-03-06T07:46:37.319Z,87.88
2023-03-06T07:52:03.011Z,87.59
2023-03-06T07:57:28.882Z,87.76
2023-03-06T08:02:54.598Z,87.59
2023-03-06T08:08:20.439Z,87.66
2023-03-06T08:13:46.168Z,87.41
2023-03-06T08:19:12.062Z,86.86
2023-03-06T08:24:37.713Z,86.82
2023-03-06T08:30:03.903Z,86.52
2023-03-06T08:35:35.420Z,86.67
2023-03-06T08:41:01.232Z,86.45
2023-03-06T08:46:27.189Z,86.35
2023-03-06T08:51:52.906Z,86.45
2023-03-06T08:57:18.565Z,86.12
2023-03-06T09:02:44.287Z,85.91
2023-03-06T09:08:03.065Z,85.58
2023-03-06T09:13:28.752Z,86.11
2023-03-06T09:18:54.784Z,85.92
2023-03-06T09:24:20.752Z,85.17
2023-03-06T09:29:46.567Z,85.17
2023-03-06T09:35:12.367Z,85.41
2023-03-06T09:40:49.485Z,84.74
2023-03-06T09:46:15.754Z,84.55
2023-03-06T09:51:51.417Z,84.33
2023-03-06T09:57:17.484Z,84.25
2023-03-06T10:02:50.587Z,84.45
2023-03-06T10:08:22.572Z,84.16
2023-03-06T10:13:55.842Z,83.31
2023-03-06T10:19:24.968Z,83.26
2023-03-06T10:25:02.621Z,83.14
2023-03-06T10:30:47.103Z,83.35
2023-03-06T10:36:14.481Z,83.23
2023-03-06T10:41:46.630Z,83.19
2023-03-06T10:47:14.635Z,82.94
2023-03-06T10:52:43.472Z,82.12
2023-03-06T10:58:08.301Z,82.55
2023-03-06T11:03:43.068Z,82.59
2023-03-06T11:09:08.707Z,82.49
2023-03-06T11:14:40.393Z,82.77
2023-03-06T11:20:06.191Z,82.16
2023-03-06T11:25:35.377Z,82.19
2023-03-06T11:30:53.367Z,81.90
2023-03-06T11:36:29.712Z,81.75
2023-03-06T11:42:06.940Z,81.67
2023-03-06T11:47:40.037Z,81.44
2023-03-06T11:53:12.725Z,81.02
2023-03-06T11:59:03.805Z,80.48
2023-03-06T12:04:49.857Z,79.93
2023-03-06T12:10:27.352Z,80.20
2023-03-06T12:16:14.065Z,80.50
2023-03-06T12:21:49.951Z,80.29
2023-03-06T12:27:32.675Z,79.93
2023-03-06T12:33:10.092Z,79.31
2023-03-06T12:38:46.411Z,79.39
2023-03-06T12:44:25.024Z,78.79
2023-03-06T12:49:52.427Z,78.36
2023-03-06T12:55:23.757Z,78.28
2023-03-06T13:01:24.652Z,78.14
2023-03-06T13:07:10.702Z,77.93
2023-03-06T13:12:59.103Z,77.51
2023-03-06T13:19:03.077Z,77.44
2023-03-06T13:24:37.973Z,76.54
2023-03-06T13:30:45.798Z,75.95
2023-03-06T13:36:15.917Z,75.83
2023-03-06T13:42:13.503Z,75.09
2023-03-06T13:54:10.650Z,74.05
2023-03-06T14:00:18.436Z,73.94
2023-03-06T14:05:45.618Z,73.78
2023-03-06T14:11:21.430Z,73.62
2023-03-06T14:16:50.762Z,73.55
2023-03-06T14:22:20.868Z,73.25
2023-03-06T14:28:13.763Z,72.11
2023-03-06T14:33:35.652Z,72.10
2023-03-06T14:39:05.987Z,71.06
2023-03-06T14:44:43.310Z,71.02
2023-03-06T14:50:28.973Z,70.25
2023-03-06T14:55:56.454Z,70.18
2023-03-06T15:01:19.918Z,70.34
2023-03-06T15:06:50.087Z,70.55
2023-03-06T15:12:10.803Z,71.23
2023-03-06T15:17:32.305Z,70.98
2023-03-06T15:22:49.391Z,70.53
2023-03-06T15:28:18.035Z,70.41
2023-03-06T15:33:35.542Z,70.19
2023-03-06T15:39:03.460Z,70.08
2023-03-06T15:44:33.958Z,70.20
2023-03-06T15:50:00.276Z,69.82
2023-03-06T15:55:27.327Z,69.25
2023-03-06T16:00:56.633Z,69.55
2023-03-06T16:06:13.383Z,69.34
2023-03-06T16:11:44.288Z,69.56
2023-03-06T16:17:10.997Z,69.84
2023-03-06T16:22:21.516Z,70.10
2023-03-06T16:27:47.622Z,69.70
2023-03-06T16:33:12.065Z,69.55
2023-03-06T16:38:27.803Z,69.98
2023-03-06T16:43:53.648Z,70.70
2023-03-06T16:49:12.331Z,71.30
2023-03-06T16:54:21.842Z,70.84
2023-03-06T16:59:40.339Z,70.76
2023-03-06T17:05:06.042Z,70.74
2023-03-06T17:10:25.593Z,70.97
2023-03-06T17:15:31.822Z,71.24
2023-03-06T17:20:40.772Z,71.37
2023-03-06T17:25:56.985Z,71.38
2023-03-06T17:31:31.105Z,71.71
2023-03-06T17:36:39.131Z,71.95
2023-03-06T17:42:05.101Z,71.97
2023-03-06T17:47:31.395Z,72.48
2023-03-06T17:52:39.847Z,72.64
2023-03-06T17:58:04.414Z,72.90
2023-03-06T18:03:30.522Z,73.30
2023-03-06T18:08:41.045Z,73.53
2023-03-06T18:13:50.093Z,73.70
2023-03-06T18:19:15.785Z,73.92
2023-03-06T18:24:31.682Z,74.21
2023-03-06T18:29:42.103Z,74.37
2023-03-06T18:35:07.938Z,74.56
2023-03-06T18:40:35.482Z,74.64
2023-03-06T18:45:44.325Z,74.84
2023-03-06T18:51:10.872Z,75.06
2023-03-06T18:56:23.497Z,75.22
2023-03-06T19:01:31.906Z,75.36
2023-03-06T19:06:59.295Z,75.35
2023-03-06T19:12:26.467Z,75.59
2023-03-06T19:17:52.000Z,75.90
2023-03-06T19:23:08.051Z,76.17
2023-03-06T19:28:33.681Z,76.35
2023-03-06T19:33:53.750Z,76.53
2023-03-06T19:39:21.479Z,76.74
2023-03-06T19:44:29.531Z,77.25
2023-03-06T19:49:46.136Z,77.28
2023-03-06T19:54:57.016Z,77.38
2023-03-06T20:00:23.091Z,77.30
2023-03-06T20:05:32.560Z,77.38
2023-03-06T20:10:47.849Z,77.47
2023-03-06T20:16:07.559Z,77.51
2023-03-06T20:21:26.701Z,77.40
2023-03-06T20:26:49.684Z,77.68
2023-03-06T20:32:07.094Z,78.05
2023-03-06T20:37:15.815Z,78.44
2023-03-06T20:42:31.826Z,78.74
2023-03-06T20:47:57.302Z,79.18
2023-03-06T20:53:13.799Z,79.46
2023-03-06T20:58:23.619Z,79.59
2023-03-06T21:03:39.256Z,79.62
2023-03-06T21:08:47.626Z,79.57
2023-03-06T21:14:04.239Z,79.78
2023-03-06T21:19:20.337Z,79.90
2023-03-06T21:24:28.635Z,79.96
2023-03-06T21:29:54.349Z,80.20
2023-03-06T21:35:09.080Z,80.39
2023-03-06T21:40:35.408Z,80.39
2023-03-06T21:45:54.213Z,80.57
2023-03-06T21:51:28.335Z,80.55
2023-03-06T21:56:47.209Z,80.74
2023-03-06T22:02:04.257Z,80.87
2023-03-06T22:07:28.832Z,80.91
2023-03-06T22:12:38.446Z,81.48
2023-03-06T22:17:55.851Z,81.59
2023-03-06T22:23:21.680Z,81.87
2023-03-06T22:28:39.102Z,82.12
2023-03-06T22:34:05.260Z,82.10
2023-03-06T22:39:33.440Z,81.95
2023-03-06T22:44:59.112Z,82.11
2023-03-06T22:50:25.639Z,82.10
2023-03-06T22:55:54.909Z,82.42
2023-03-06T23:01:25.849Z,82.70
2023-03-06T23:06:54.005Z,82.53
2023-03-06T23:12:20.167Z,82.55
2023-03-06T23:17:46.076Z,82.47
2023-03-06T23:23:11.930Z,82.58
2023-03-06T23:28:37.758Z,82.51
2023-03-06T23:34:03.778Z,83.27
2023-03-06T23:39:19.723Z,83.50
2023-03-06T23:44:45.459Z,84.36
2023-03-06T23:50:10.092Z,85.23
2023-03-06T23:55:35.864Z,86.79
